sensor_id;sensor_type;location;lat;lon;timestamp;pressure;altitude;pressure_sealevel;temperature;humidity
45731;BME280;31440;48.584;13.460;2023-02-16T00:02:48;98026.28;;;-1.64;100.00
45731;BME280;31440;48.584;13.460;2023-02-16T00:05:52;97984.38;;;-1.73;100.00
45731;BME280;31440;48.584;13.460;2023-02-16T00:08:57;98017.84;;;-1.92;100.00
45731;BME280;31440;48.584;13.460;2023-02-16T00:12:02;98016.78;;;-2.00;100.00
45731;BME280;31440;48.584;13.460;2023-02-16T00:15:28;97991.63;;;-2.16;100.00
45731;BME280;31440;48.584;13.460;2023-02-16T00:18:33;98004.50;;;-2.12;100.00
45731;BME280;31440;48.584;13.460;2023-02-16T00:21:37;98013.41;;;-2.27;100.00
45731;BME280;31440;48.584;13.460;2023-02-16T00:24:42;97994.97;;;-2.47;100.00
45731;BME280;31440;48.584;13.460;2023-02-16T00:27:46;98015.91;;;-2.29;100.00
45731;BME280;31440;48.584;13.460;2023-02-16T00:30:51;98000.66;;;-2.56;100.00
45731;BME280;31440;48.584;13.460;2023-02-16T00:33:57;97985.91;;;-2.66;100.00
45731;BME280;31440;48.584;13.460;2023-02-16T00:37:11;98017.31;;;-2.39;100.00
45731;BME280;31440;48.584;13.460;2023-02-16T00:40:16;98016.22;;;-2.47;100.00
45731;BME280;31440;48.584;13.460;2023-02-16T00:43:23;98016.09;;;-2.23;100.00
45731;BME280;31440;48.584;13.460;2023-02-16T00:46:29;98016.97;;;-2.22;100.00
45731;BME280;31440;48.584;13.460;2023-02-16T00:49:34;97980.31;;;-2.26;100.00
45731;BME280;31440;48.584;13.460;2023-02-16T00:52:39;97997.09;;;-2.04;100.00
45731;BME280;31440;48.584;13.460;2023-02-16T00:55:47;98005.88;;;-1.64;100.00
45731;BME280;31440;48.584;13.460;2023-02-16T00:58:52;97993.03;;;-1.68;100.00
45731;BME280;31440;48.584;13.460;2023-02-16T01:01:56;97962.00;;;-2.13;100.00
45731;BME280;31440;48.584;13.460;2023-02-16T01:05:01;97997.22;;;-1.70;100.00
45731;BME280;31440;48.584;13.460;2023-02-16T01:08:12;97955.44;;;-2.35;100.00
45731;BME280;31440;48.584;13.460;2023-02-16T01:11:37;97978.84;;;-2.18;100.00
45731;BME280;31440;48.584;13.460;2023-02-16T01:14:41;97951.13;;;-2.37;100.00
45731;BME280;31440;48.584;13.460;2023-02-16T01:17:47;97980.28;;;-1.97;100.00
45731;BME280;31440;48.584;13.460;2023-02-16T01:20:52;97987.63;;;-1.78;100.00
45731;BME280;31440;48.584;13.460;2023-02-16T01:23:56;97947.88;;;-2.31;100.00
45731;BME280;31440;48.584;13.460;2023-02-16T01:27:01;97971.53;;;-2.07;100.00
45731;BME280;31440;48.584;13.460;2023-02-16T01:30:12;97984.94;;;-2.13;100.00
45731;BME280;31440;48.584;13.460;2023-02-16T01:33:18;97963.50;;;-2.49;100.00
45731;BME280;31440;48.584;13.460;2023-02-16T01:36:30;97974.72;;;-2.14;100.00
45731;BME280;31440;48.584;13.460;2023-02-16T01:39:36;97939.50;;;-2.27;100.00
45731;BME280;31440;48.584;13.460;2023-02-16T01:42:50;97979.91;;;-2.11;100.00
45731;BME280;31440;48.584;13.460;2023-02-16T01:46:11;97943.88;;;-2.52;100.00
45731;BME280;31440;48.584;13.460;2023-02-16T01:49:19;97970.47;;;-2.14;100.00
45731;BME280;31440;48.584;13.460;2023-02-16T01:52:38;97962.97;;;-2.09;100.00
45731;BME280;31440;48.584;13.460;2023-02-16T01:55:47;97960.91;;;-2.22;100.00
45731;BME280;31440;48.584;13.460;2023-02-16T01:58:54;97957.97;;;-2.06;100.00
45731;BME280;31440;48.584;13.460;2023-02-16T02:02:04;97914.56;;;-2.39;100.00
45731;BME280;31440;48.584;13.460;2023-02-16T02:05:23;97948.69;;;-2.04;100.00
45731;BME280;31440;48.584;13.460;2023-02-16T02:08:49;97880.59;;;-2.40;100.00
45731;BME280;31440;48.584;13.460;2023-02-16T02:12:05;97939.94;;;-2.12;100.00
45731;BME280;31440;48.584;13.460;2023-02-16T02:15:16;97931.06;;;-2.26;100.00
45731;BME280;31440;48.584;13.460;2023-02-16T02:18:23;97939.06;;;-2.13;100.00
45731;BME280;31440;48.584;13.460;2023-02-16T02:22:01;97929.50;;;-2.21;100.00
45731;BME280;31440;48.584;13.460;2023-02-16T02:25:34;97933.06;;;-2.15;100.00
45731;BME280;31440;48.584;13.460;2023-02-16T02:29:19;97929.78;;;-2.11;100.00
45731;BME280;31440;48.584;13.460;2023-02-16T02:36:00;97927.94;;;-1.86;100.00
45731;BME280;31440;48.584;13.460;2023-02-16T02:42:31;97922.28;;;-2.06;100.00
45731;BME280;31440;48.584;13.460;2023-02-16T02:45:47;97918.34;;;-1.95;100.00
45731;BME280;31440;48.584;13.460;2023-02-16T02:48:53;97918.13;;;-2.32;100.00
45731;BME280;31440;48.584;13.460;2023-02-16T02:51:58;97921.88;;;-2.21;100.00
45731;BME280;31440;48.584;13.460;2023-02-16T02:55:03;97918.03;;;-2.37;100.00
45731;BME280;31440;48.584;13.460;2023-02-16T02:58:29;97881.66;;;-2.61;100.00
45731;BME280;31440;48.584;13.460;2023-02-16T03:01:57;97886.38;;;-2.74;100.00
45731;BME280;31440;48.584;13.460;2023-02-16T03:05:06;97919.06;;;-2.59;100.00
45731;BME280;31440;48.584;13.460;2023-02-16T03:08:16;97916.34;;;-2.35;100.00
45731;BME280;31440;48.584;13.460;2023-02-16T03:11:25;97870.56;;;-2.63;100.00
45731;BME280;31440;48.584;13.460;2023-02-16T03:14:55;97916.88;;;-2.17;100.00
45731;BME280;31440;48.584;13.460;2023-02-16T03:18:04;97914.13;;;-1.93;100.00
45731;BME280;31440;48.584;13.460;2023-02-16T03:21:30;97883.47;;;-2.57;100.00
45731;BME280;31440;48.584;13.460;2023-02-16T03:24:55;97887.69;;;-2.58;100.00
45731;BME280;31440;48.584;13.460;2023-02-16T03:28:20;97908.97;;;-2.56;100.00
45731;BME280;31440;48.584;13.460;2023-02-16T03:31:44;97905.19;;;-2.40;100.00
45731;BME280;31440;48.584;13.460;2023-02-16T03:34:50;97874.28;;;-2.81;100.00
45731;BME280;31440;48.584;13.460;2023-02-16T03:37:54;97917.16;;;-2.94;100.00
45731;BME280;31440;48.584;13.460;2023-02-16T03:40:59;97923.56;;;-2.50;100.00
45731;BME280;31440;48.584;13.460;2023-02-16T03:44:04;97923.44;;;-2.55;100.00
45731;BME280;31440;48.584;13.460;2023-02-16T03:47:09;97921.63;;;-2.59;100.00
45731;BME280;31440;48.584;13.460;2023-02-16T03:50:14;97914.22;;;-2.50;100.00
45731;BME280;31440;48.584;13.460;2023-02-16T03:53:19;97894.88;;;-2.45;100.00
45731;BME280;31440;48.584;13.460;2023-02-16T03:56:24;97920.16;;;-2.51;100.00
45731;BME280;31440;48.584;13.460;2023-02-16T03:59:28;97884.63;;;-2.76;100.00
45731;BME280;31440;48.584;13.460;2023-02-16T04:02:33;97923.72;;;-2.74;100.00
45731;BME280;31440;48.584;13.460;2023-02-16T04:05:38;97886.50;;;-2.69;100.00
45731;BME280;31440;48.584;13.460;2023-02-16T04:08:42;97922.66;;;-2.52;100.00
45731;BME280;31440;48.584;13.460;2023-02-16T04:11:47;97892.69;;;-2.89;100.00
45731;BME280;31440;48.584;13.460;2023-02-16T04:15:19;97923.78;;;-2.71;100.00
45731;BME280;31440;48.584;13.460;2023-02-16T04:18:25;97921.31;;;-2.68;100.00
45731;BME280;31440;48.584;13.460;2023-02-16T04:21:29;97922.66;;;-2.52;100.00
45731;BME280;31440;48.584;13.460;2023-02-16T04:24:34;97897.28;;;-2.78;100.00
45731;BME280;31440;48.584;13.460;2023-02-16T04:27:39;97931.81;;;-2.59;100.00
45731;BME280;31440;48.584;13.460;2023-02-16T04:30:44;97897.00;;;-2.87;100.00
45731;BME280;31440;48.584;13.460;2023-02-16T04:33:49;97918.94;;;-2.63;100.00
45731;BME280;31440;48.584;13.460;2023-02-16T04:36:53;97874.97;;;-2.86;100.00
45731;BME280;31440;48.584;13.460;2023-02-16T04:39:58;97913.94;;;-2.60;100.00
45731;BME280;31440;48.584;13.460;2023-02-16T04:43:03;97922.38;;;-2.61;100.00
45731;BME280;31440;48.584;13.460;2023-02-16T04:46:07;97924.06;;;-2.62;100.00
45731;BME280;31440;48.584;13.460;2023-02-16T04:49:12;97926.06;;;-2.52;100.00
45731;BME280;31440;48.584;13.460;2023-02-16T04:52:17;97920.91;;;-2.53;100.00
45731;BME280;31440;48.584;13.460;2023-02-16T04:55:22;97919.50;;;-2.44;100.00
45731;BME280;31440;48.584;13.460;2023-02-16T04:58:27;97933.84;;;-2.47;100.00
45731;BME280;31440;48.584;13.460;2023-02-16T05:01:33;97938.69;;;-2.56;100.00
45731;BME280;31440;48.584;13.460;2023-02-16T05:04:37;97919.94;;;-2.58;100.00
45731;BME280;31440;48.584;13.460;2023-02-16T05:07:42;97898.56;;;-2.63;100.00
45731;BME280;31440;48.584;13.460;2023-02-16T05:10:47;97930.91;;;-2.61;100.00
45731;BME280;31440;48.584;13.460;2023-02-16T05:14:23;97930.28;;;-2.52;100.00
45731;BME280;31440;48.584;13.460;2023-02-16T05:17:48;97932.16;;;-2.47;100.00
45731;BME280;31440;48.584;13.460;2023-02-16T05:20:52;97924.16;;;-2.59;100.00
45731;BME280;31440;48.584;13.460;2023-02-16T05:24:15;97935.97;;;-2.61;100.00
45731;BME280;31440;48.584;13.460;2023-02-16T05:27:23;97937.81;;;-2.57;100.00
45731;BME280;31440;48.584;13.460;2023-02-16T05:30:27;97901.91;;;-2.64;100.00
45731;BME280;31440;48.584;13.460;2023-02-16T05:33:32;97940.31;;;-2.00;100.00
45731;BME280;31440;48.584;13.460;2023-02-16T05:36:37;97915.28;;;-2.72;100.00
45731;BME280;31440;48.584;13.460;2023-02-16T05:39:41;97892.13;;;-2.51;100.00
45731;BME280;31440;48.584;13.460;2023-02-16T05:42:46;97949.94;;;-2.20;100.00
45731;BME280;31440;48.584;13.460;2023-02-16T05:45:50;97941.81;;;-2.35;100.00
45731;BME280;31440;48.584;13.460;2023-02-16T05:48:55;97952.72;;;-2.41;100.00
45731;BME280;31440;48.584;13.460;2023-02-16T05:51:59;97952.06;;;-2.33;100.00
45731;BME280;31440;48.584;13.460;2023-02-16T05:55:04;97909.47;;;-2.67;100.00
45731;BME280;31440;48.584;13.460;2023-02-16T05:58:09;97931.19;;;-2.50;100.00
45731;BME280;31440;48.584;13.460;2023-02-16T06:01:14;97968.81;;;-2.42;100.00
45731;BME280;31440;48.584;13.460;2023-02-16T06:04:20;97948.09;;;-2.54;100.00
45731;BME280;31440;48.584;13.460;2023-02-16T06:07:25;97968.78;;;-2.13;100.00
45731;BME280;31440;48.584;13.460;2023-02-16T06:10:29;97934.03;;;-2.41;100.00
45731;BME280;31440;48.584;13.460;2023-02-16T06:13:34;97947.25;;;-2.81;100.00
45731;BME280;31440;48.584;13.460;2023-02-16T06:16:42;97972.09;;;-2.74;100.00
45731;BME280;31440;48.584;13.460;2023-02-16T06:19:48;97979.88;;;-2.68;100.00
45731;BME280;31440;48.584;13.460;2023-02-16T06:22:52;97969.94;;;-2.32;100.00
45731;BME280;31440;48.584;13.460;2023-02-16T06:25:57;97952.56;;;-2.45;100.00
45731;BME280;31440;48.584;13.460;2023-02-16T06:29:02;97986.47;;;-2.48;100.00
45731;BME280;31440;48.584;13.460;2023-02-16T06:32:06;97984.13;;;-2.12;100.00
45731;BME280;31440;48.584;13.460;2023-02-16T06:35:11;97980.03;;;-2.37;100.00
45731;BME280;31440;48.584;13.460;2023-02-16T06:38:16;97973.22;;;-2.64;100.00
45731;BME280;31440;48.584;13.460;2023-02-16T06:41:20;97943.72;;;-2.85;100.00
45731;BME280;31440;48.584;13.460;2023-02-16T06:44:44;97981.88;;;-2.31;100.00
45731;BME280;31440;48.584;13.460;2023-02-16T06:47:49;97992.56;;;-2.43;100.00
45731;BME280;31440;48.584;13.460;2023-02-16T06:50:53;97991.34;;;-2.55;100.00
45731;BME280;31440;48.584;13.460;2023-02-16T06:53:58;97995.28;;;-2.08;100.00
45731;BME280;31440;48.584;13.460;2023-02-16T06:57:03;97991.97;;;-2.06;100.00
45731;BME280;31440;48.584;13.460;2023-02-16T07:00:07;97982.22;;;-2.47;100.00
45731;BME280;31440;48.584;13.460;2023-02-16T07:03:12;97974.75;;;-2.70;100.00
45731;BME280;31440;48.584;13.460;2023-02-16T07:06:18;97967.34;;;-2.33;100.00
45731;BME280;31440;48.584;13.460;2023-02-16T07:09:23;97995.81;;;-2.20;100.00
45731;BME280;31440;48.584;13.460;2023-02-16T07:12:27;97989.09;;;-2.45;100.00
45731;BME280;31440;48.584;13.460;2023-02-16T07:15:32;98008.16;;;-2.60;100.00
45731;BME280;31440;48.584;13.460;2023-02-16T07:18:36;98027.63;;;-2.34;100.00
45731;BME280;31440;48.584;13.460;2023-02-16T07:21:41;98025.56;;;-2.17;100.00
45731;BME280;31440;48.584;13.460;2023-02-16T07:24:47;97993.44;;;-2.42;100.00
45731;BME280;31440;48.584;13.460;2023-02-16T07:27:51;98030.72;;;-2.44;100.00
45731;BME280;31440;48.584;13.460;2023-02-16T07:30:58;97993.06;;;-2.54;100.00
45731;BME280;31440;48.584;13.460;2023-02-16T07:34:02;98033.16;;;-2.47;100.00
45731;BME280;31440;48.584;13.460;2023-02-16T07:37:07;98020.34;;;-2.50;100.00
45731;BME280;31440;48.584;13.460;2023-02-16T07:40:12;98019.63;;;-2.46;100.00
45731;BME280;31440;48.584;13.460;2023-02-16T07:43:16;98020.78;;;-2.37;100.00
45731;BME280;31440;48.584;13.460;2023-02-16T07:46:23;97992.00;;;-2.61;100.00
45731;BME280;31440;48.584;13.460;2023-02-16T07:49:27;98017.72;;;-2.25;100.00
45731;BME280;31440;48.584;13.460;2023-02-16T07:52:33;98007.53;;;-1.95;100.00
45731;BME280;31440;48.584;13.460;2023-02-16T07:55:39;98007.69;;;-1.90;100.00
45731;BME280;31440;48.584;13.460;2023-02-16T07:58:44;98017.09;;;-1.88;100.00
45731;BME280;31440;48.584;13.460;2023-02-16T08:01:50;98015.44;;;-1.87;100.00
45731;BME280;31440;48.584;13.460;2023-02-16T08:04:55;98007.78;;;-1.87;100.00
45731;BME280;31440;48.584;13.460;2023-02-16T08:08:00;97992.91;;;-2.02;100.00
45731;BME280;31440;48.584;13.460;2023-02-16T08:11:15;98015.50;;;-1.84;100.00
45731;BME280;31440;48.584;13.460;2023-02-16T08:14:21;98019.00;;;-1.51;100.00
45731;BME280;31440;48.584;13.460;2023-02-16T08:17:25;98025.72;;;-1.84;100.00
45731;BME280;31440;48.584;13.460;2023-02-16T08:20:30;97999.47;;;-1.80;100.00
45731;BME280;31440;48.584;13.460;2023-02-16T08:23:56;98026.13;;;-1.69;100.00
45731;BME280;31440;48.584;13.460;2023-02-16T08:27:03;98037.03;;;-1.75;100.00
45731;BME280;31440;48.584;13.460;2023-02-16T08:30:08;98039.81;;;-1.67;100.00
45731;BME280;31440;48.584;13.460;2023-02-16T08:33:16;98041.44;;;-1.38;100.00
45731;BME280;31440;48.584;13.460;2023-02-16T08:36:29;98003.78;;;-1.78;100.00
45731;BME280;31440;48.584;13.460;2023-02-16T08:39:35;98006.50;;;-1.40;100.00
45731;BME280;31440;48.584;13.460;2023-02-16T08:42:40;98050.16;;;-0.98;100.00
45731;BME280;31440;48.584;13.460;2023-02-16T08:45:48;98017.13;;;-1.56;100.00
45731;BME280;31440;48.584;13.460;2023-02-16T08:48:54;98029.28;;;-1.46;100.00
45731;BME280;31440;48.584;13.460;2023-02-16T08:52:01;98050.13;;;-1.00;100.00
45731;BME280;31440;48.584;13.460;2023-02-16T08:55:07;98048.50;;;-0.62;100.00
45731;BME280;31440;48.584;13.460;2023-02-16T08:58:12;98007.38;;;-0.72;100.00
45731;BME280;31440;48.584;13.460;2023-02-16T09:01:19;98027.31;;;-0.92;100.00
45731;BME280;31440;48.584;13.460;2023-02-16T09:04:24;98050.66;;;-0.78;100.00
45731;BME280;31440;48.584;13.460;2023-02-16T09:07:29;98047.28;;;-0.77;100.00
45731;BME280;31440;48.584;13.460;2023-02-16T09:10:38;98047.28;;;-0.77;100.00
45731;BME280;31440;48.584;13.460;2023-02-16T09:13:42;98041.19;;;-0.82;100.00
45731;BME280;31440;48.584;13.460;2023-02-16T09:16:48;98024.84;;;-0.89;100.00
45731;BME280;31440;48.584;13.460;2023-02-16T09:19:52;98049.22;;;-0.31;100.00
45731;BME280;31440;48.584;13.460;2023-02-16T09:22:57;98025.31;;;-1.04;100.00
45731;BME280;31440;48.584;13.460;2023-02-16T09:26:03;98043.44;;;-0.94;100.00
45731;BME280;31440;48.584;13.460;2023-02-16T09:29:11;98039.41;;;-0.50;100.00
45731;BME280;31440;48.584;13.460;2023-02-16T09:32:17;98047.13;;;-0.11;100.00
45731;BME280;31440;48.584;13.460;2023-02-16T09:35:21;98056.13;;;-0.63;100.00
45731;BME280;31440;48.584;13.460;2023-02-16T09:38:26;98059.38;;;-0.34;100.00
45731;BME280;31440;48.584;13.460;2023-02-16T09:45:01;98048.75;;;-0.51;100.00
45731;BME280;31440;48.584;13.460;2023-02-16T09:48:26;98044.47;;;-0.52;100.00
45731;BME280;31440;48.584;13.460;2023-02-16T09:51:36;98053.66;;;-0.24;100.00
45731;BME280;31440;48.584;13.460;2023-02-16T09:54:52;98048.13;;;-0.42;100.00
45731;BME280;31440;48.584;13.460;2023-02-16T09:58:06;98004.91;;;-0.32;100.00
45731;BME280;31440;48.584;13.460;2023-02-16T10:01:33;98016.56;;;-0.80;100.00
45731;BME280;31440;48.584;13.460;2023-02-16T10:04:46;98046.88;;;-0.22;100.00
45731;BME280;31440;48.584;13.460;2023-02-16T10:08:06;98046.97;;;-0.17;100.00
45731;BME280;31440;48.584;13.460;2023-02-16T10:11:28;98033.69;;;-0.39;100.00
45731;BME280;31440;48.584;13.460;2023-02-16T10:15:21;98033.66;;;-0.42;100.00
45731;BME280;31440;48.584;13.460;2023-02-16T10:18:34;98028.53;;;-0.03;100.00
45731;BME280;31440;48.584;13.460;2023-02-16T10:21:43;98005.78;;;-0.67;100.00
45731;BME280;31440;48.584;13.460;2023-02-16T10:25:55;98046.88;;;0.17;100.00
45731;BME280;31440;48.584;13.460;2023-02-16T10:28:52;98008.28;;;-0.33;100.00
45731;BME280;31440;48.584;13.460;2023-02-16T10:32:34;98038.47;;;-0.16;100.00
45731;BME280;31440;48.584;13.460;2023-02-16T10:35:49;98037.34;;;0.10;100.00
45731;BME280;31440;48.584;13.460;2023-02-16T10:39:14;98021.28;;;-0.23;100.00
45731;BME280;31440;48.584;13.460;2023-02-16T10:45:52;98033.34;;;0.23;100.00
45731;BME280;31440;48.584;13.460;2023-02-16T10:48:58;98034.13;;;0.20;100.00
45731;BME280;31440;48.584;13.460;2023-02-16T10:52:06;98028.72;;;0.47;100.00
45731;BME280;31440;48.584;13.460;2023-02-16T10:55:11;97999.00;;;0.55;100.00
45731;BME280;31440;48.584;13.460;2023-02-16T10:58:23;98030.56;;;0.54;100.00
45731;BME280;31440;48.584;13.460;2023-02-16T11:01:37;97991.00;;;0.37;100.00
45731;BME280;31440;48.584;13.460;2023-02-16T11:04:45;98030.66;;;0.59;100.00
45731;BME280;31440;48.584;13.460;2023-02-16T11:07:53;98016.63;;;0.40;100.00
45731;BME280;31440;48.584;13.460;2023-02-16T11:11:07;98025.06;;;0.79;100.00
45731;BME280;31440;48.584;13.460;2023-02-16T11:14:27;98014.81;;;0.33;100.00
45731;BME280;31440;48.584;13.460;2023-02-16T11:17:47;97998.66;;;0.82;100.00
45731;BME280;31440;48.584;13.460;2023-02-16T11:20:55;97989.53;;;0.50;100.00
45731;BME280;31440;48.584;13.460;2023-02-16T11:24:00;98007.94;;;0.75;100.00
45731;BME280;31440;48.584;13.460;2023-02-16T11:27:16;98004.88;;;0.96;100.00
45731;BME280;31440;48.584;13.460;2023-02-16T11:30:29;98007.78;;;1.16;100.00
45731;BME280;31440;48.584;13.460;2023-02-16T11:33:36;98003.66;;;0.76;100.00
45731;BME280;31440;48.584;13.460;2023-02-16T11:36:42;98009.22;;;0.99;100.00
45731;BME280;31440;48.584;13.460;2023-02-16T11:39:50;97995.00;;;0.69;100.00
45731;BME280;31440;48.584;13.460;2023-02-16T11:42:57;98002.78;;;1.24;100.00
45731;BME280;31440;48.584;13.460;2023-02-16T11:46:15;97971.78;;;1.08;100.00
45731;BME280;31440;48.584;13.460;2023-02-16T11:49:38;97998.81;;;0.91;100.00
45731;BME280;31440;48.584;13.460;2023-02-16T11:52:49;97987.09;;;1.05;100.00
45731;BME280;31440;48.584;13.460;2023-02-16T11:56:22;97987.19;;;1.10;100.00
45731;BME280;31440;48.584;13.460;2023-02-16T11:59:33;97966.78;;;1.14;100.00
45731;BME280;31440;48.584;13.460;2023-02-16T12:09:29;97962.38;;;2.28;100.00
45731;BME280;31440;48.584;13.460;2023-02-16T12:19:35;97954.44;;;2.08;100.00
45731;BME280;31440;48.584;13.460;2023-02-16T12:22:46;97957.72;;;1.98;100.00
45731;BME280;31440;48.584;13.460;2023-02-16T12:26:08;97942.41;;;1.42;100.00
45731;BME280;31440;48.584;13.460;2023-02-16T12:29:38;97949.13;;;1.93;100.00
45731;BME280;31440;48.584;13.460;2023-02-16T12:32:57;97941.13;;;1.72;100.00
45731;BME280;31440;48.584;13.460;2023-02-16T12:36:26;97927.88;;;1.40;100.00
45731;BME280;31440;48.584;13.460;2023-02-16T12:39:36;97925.16;;;1.29;100.00
45731;BME280;31440;48.584;13.460;2023-02-16T12:46:41;97920.59;;;1.70;100.00
45731;BME280;31440;48.584;13.460;2023-02-16T12:49:52;97899.22;;;1.68;100.00
45731;BME280;31440;48.584;13.460;2023-02-16T12:53:02;97912.72;;;2.26;100.00
45731;BME280;31440;48.584;13.460;2023-02-16T12:56:18;97878.06;;;1.86;100.00
45731;BME280;31440;48.584;13.460;2023-02-16T12:59:33;97893.84;;;1.50;100.00
45731;BME280;31440;48.584;13.460;2023-02-16T13:02:43;97917.78;;;2.22;100.00
45731;BME280;31440;48.584;13.460;2023-02-16T13:05:58;97901.56;;;3.18;100.00
45731;BME280;31440;48.584;13.460;2023-02-16T13:12:33;97902.66;;;2.46;100.00
45731;BME280;31440;48.584;13.460;2023-02-16T13:15:43;97899.38;;;2.61;100.00
45731;BME280;31440;48.584;13.460;2023-02-16T13:18:52;97879.75;;;2.69;100.00
45731;BME280;31440;48.584;13.460;2023-02-16T13:25:53;97852.78;;;3.27;100.00
45731;BME280;31440;48.584;13.460;2023-02-16T13:29:35;97874.50;;;3.84;100.00
45731;BME280;31440;48.584;13.460;2023-02-16T13:33:08;97874.00;;;2.97;100.00
45731;BME280;31440;48.584;13.460;2023-02-16T13:36:36;97864.91;;;3.57;100.00
45731;BME280;31440;48.584;13.460;2023-02-16T13:40:10;97870.00;;;3.45;100.00
45731;BME280;31440;48.584;13.460;2023-02-16T13:43:31;97869.50;;;4.33;100.00
45731;BME280;31440;48.584;13.460;2023-02-16T13:46:42;97845.25;;;5.92;100.00
45731;BME280;31440;48.584;13.460;2023-02-16T13:49:47;97852.31;;;5.46;100.00
45731;BME280;31440;48.584;13.460;2023-02-16T13:52:55;97809.09;;;5.92;93.72
45731;BME280;31440;48.584;13.460;2023-02-16T13:56:21;97845.47;;;5.25;98.93
45731;BME280;31440;48.584;13.460;2023-02-16T14:02:50;97851.56;;;4.80;100.00
45731;BME280;31440;48.584;13.460;2023-02-16T14:12:45;97820.38;;;3.61;100.00
45731;BME280;31440;48.584;13.460;2023-02-16T14:15:52;97840.34;;;4.32;100.00
45731;BME280;31440;48.584;13.460;2023-02-16T14:22:09;97823.88;;;3.72;100.00
45731;BME280;31440;48.584;13.460;2023-02-16T14:25:31;97847.19;;;4.21;100.00
45731;BME280;31440;48.584;13.460;2023-02-16T14:28:57;97853.22;;;5.17;98.69
45731;BME280;31440;48.584;13.460;2023-02-16T14:35:17;97851.09;;;6.32;84.06
45731;BME280;31440;48.584;13.460;2023-02-16T14:38:32;97843.78;;;6.92;76.79
45731;BME280;31440;48.584;13.460;2023-02-16T14:41:39;97828.72;;;7.32;76.31
45731;BME280;31440;48.584;13.460;2023-02-16T14:48:30;97830.22;;;7.53;72.53
45731;BME280;31440;48.584;13.460;2023-02-16T14:58:50;97835.44;;;6.58;78.27
45731;BME280;31440;48.584;13.460;2023-02-16T15:01:57;97842.47;;;6.27;78.08
45731;BME280;31440;48.584;13.460;2023-02-16T15:05:20;97847.53;;;6.51;75.98
45731;BME280;31440;48.584;13.460;2023-02-16T15:08:27;97849.69;;;5.56;80.95
45731;BME280;31440;48.584;13.460;2023-02-16T15:12:02;97848.75;;;5.80;81.42
45731;BME280;31440;48.584;13.460;2023-02-16T15:15:53;97846.19;;;5.74;80.74
45731;BME280;31440;48.584;13.460;2023-02-16T15:19:07;97808.53;;;5.18;82.34
45731;BME280;31440;48.584;13.460;2023-02-16T15:22:21;97817.16;;;4.47;89.58
45731;BME280;31440;48.584;13.460;2023-02-16T15:25:29;97823.97;;;4.03;97.86
45731;BME280;31440;48.584;13.460;2023-02-16T15:28:38;97839.38;;;3.93;100.00
45731;BME280;31440;48.584;13.460;2023-02-16T15:31:42;97791.03;;;3.13;100.00
45731;BME280;31440;48.584;13.460;2023-02-16T15:34:48;97820.69;;;2.69;100.00
45731;BME280;31440;48.584;13.460;2023-02-16T15:38:02;97809.63;;;2.77;100.00
45731;BME280;31440;48.584;13.460;2023-02-16T15:41:11;97840.28;;;2.56;100.00
45731;BME280;31440;48.584;13.460;2023-02-16T15:44:31;97836.72;;;2.42;100.00
45731;BME280;31440;48.584;13.460;2023-02-16T15:47:37;97823.66;;;2.16;100.00
45731;BME280;31440;48.584;13.460;2023-02-16T15:50:43;97811.91;;;2.41;100.00
45731;BME280;31440;48.584;13.460;2023-02-16T15:53:54;97797.31;;;2.35;100.00
45731;BME280;31440;48.584;13.460;2023-02-16T15:57:13;97832.28;;;2.23;100.00
45731;BME280;31440;48.584;13.460;2023-02-16T16:00:22;97791.09;;;2.07;100.00
45731;BME280;31440;48.584;13.460;2023-02-16T16:03:28;97825.50;;;2.28;100.00
45731;BME280;31440;48.584;13.460;2023-02-16T16:06:38;97825.75;;;1.72;100.00
45731;BME280;31440;48.584;13.460;2023-02-16T16:09:43;97832.38;;;1.53;100.00
45731;BME280;31440;48.584;13.460;2023-02-16T16:12:49;97831.38;;;1.43;100.00
45731;BME280;31440;48.584;13.460;2023-02-16T16:15:57;97805.50;;;1.24;100.00
45731;BME280;31440;48.584;13.460;2023-02-16T16:19:13;97842.88;;;1.09;100.00
45731;BME280;31440;48.584;13.460;2023-02-16T16:22:34;97830.97;;;0.56;100.00
45731;BME280;31440;48.584;13.460;2023-02-16T16:25:42;97851.09;;;0.86;100.00
45731;BME280;31440;48.584;13.460;2023-02-16T16:28:48;97822.53;;;0.61;100.00
45731;BME280;31440;48.584;13.460;2023-02-16T16:31:52;97850.31;;;0.40;100.00
45731;BME280;31440;48.584;13.460;2023-02-16T16:34:57;97849.06;;;0.66;100.00
45731;BME280;31440;48.584;13.460;2023-02-16T16:38:03;97847.03;;;0.47;100.00
45731;BME280;31440;48.584;13.460;2023-02-16T16:41:27;97845.88;;;0.28;100.00
45731;BME280;31440;48.584;13.460;2023-02-16T16:44:38;97860.72;;;0.48;100.00
45731;BME280;31440;48.584;13.460;2023-02-16T16:47:49;97860.47;;;0.88;100.00
45731;BME280;31440;48.584;13.460;2023-02-16T16:51:14;97872.13;;;0.69;100.00
45731;BME280;31440;48.584;13.460;2023-02-16T16:54:31;97871.81;;;0.51;100.00
45731;BME280;31440;48.584;13.460;2023-02-16T16:57:36;97870.06;;;0.46;100.00
45731;BME280;31440;48.584;13.460;2023-02-16T17:00:41;97860.38;;;0.29;100.00
45731;BME280;31440;48.584;13.460;2023-02-16T17:03:46;97877.13;;;-0.32;100.00
45731;BME280;31440;48.584;13.460;2023-02-16T17:06:50;97870.63;;;-0.16;100.00
45731;BME280;31440;48.584;13.460;2023-02-16T17:09:55;97870.41;;;-0.27;100.00
45731;BME280;31440;48.584;13.460;2023-02-16T17:13:00;97877.53;;;-0.12;100.00
45731;BME280;31440;48.584;13.460;2023-02-16T17:16:12;97873.72;;;-0.71;100.00
45731;BME280;31440;48.584;13.460;2023-02-16T17:19:21;97875.69;;;-0.59;100.00
45731;BME280;31440;48.584;13.460;2023-02-16T17:22:26;97858.47;;;-0.68;100.00
45731;BME280;31440;48.584;13.460;2023-02-16T17:25:32;97826.81;;;-1.15;100.00
45731;BME280;31440;48.584;13.460;2023-02-16T17:28:37;97873.09;;;-1.00;100.00
45731;BME280;31440;48.584;13.460;2023-02-16T17:31:41;97872.09;;;-1.07;100.00
45731;BME280;31440;48.584;13.460;2023-02-16T17:34:46;97823.63;;;-1.05;100.00